createdAt,value
2023-03-11T00:01:27.636Z,99.99
2023-03-11T00:03:39.703Z,99.99
2023-03-11T00:05:51.803Z,99.99
2023-03-11T00:08:03.942Z,99.99
2023-03-11T00:10:16.024Z,99.99
2023-03-11T00:12:28.055Z,99.99
2023-03-11T00:14:40.111Z,99.99
2023-03-11T00:16:52.265Z,99.99
2023-03-11T00:19:04.294Z,99.99
2023-03-11T00:21:16.401Z,99.99
2023-03-11T00:23:28.495Z,99.99
2023-03-11T00:25:42.102Z,99.99
2023-03-11T00:27:54.142Z,99.99
2023-03-11T00:30:06.236Z,99.99
2023-03-11T00:32:18.362Z,99.99
2023-03-11T00:34:30.414Z,99.99
2023-03-11T00:36:42.491Z,99.99
2023-03-11T00:38:54.667Z,99.99
2023-03-11T00:41:06.689Z,99.99
2023-03-11T00:43:18.801Z,99.99
2023-03-11T00:45:30.828Z,99.99
2023-03-11T00:47:42.912Z,99.99
2023-03-11T00:49:56.504Z,99.99
2023-03-11T00:52:10.106Z,99.99
2023-03-11T00:54:22.180Z,99.99
2023-03-11T00:56:35.244Z,99.99
2023-03-11T00:58:47.312Z,99.99
2023-03-11T01:00:59.122Z,99.99
2023-03-11T01:03:12.121Z,99.99
2023-03-11T01:05:25.716Z,99.99
2023-03-11T01:07:37.769Z,99.99
2023-03-11T01:09:49.858Z,99.99
2023-03-11T01:12:01.944Z,99.99
2023-03-11T01:14:15.042Z,99.99
2023-03-11T01:16:28.130Z,99.99
2023-03-11T01:18:41.191Z,99.99
2023-03-11T01:20:53.250Z,99.99
2023-03-11T01:23:06.347Z,99.99
2023-03-11T01:25:19.917Z,99.99
2023-03-11T01:27:32.036Z,99.99
2023-03-11T01:29:45.108Z,99.99
2023-03-11T01:31:57.172Z,99.99
2023-03-11T01:34:09.274Z,99.99
2023-03-11T01:36:22.836Z,99.99
2023-03-11T01:38:34.964Z,99.99
2023-03-11T01:40:47.059Z,99.99
2023-03-11T01:42:59.118Z,99.99
2023-03-11T01:45:12.200Z,99.99
2023-03-11T01:47:24.257Z,99.99
2023-03-11T01:49:36.358Z,99.99
2023-03-11T01:51:49.425Z,99.99
2023-03-11T01:54:03.169Z,99.99
2023-03-11T01:56:15.097Z,99.99
2023-03-11T01:58:27.187Z,99.99
2023-03-11T02:00:39.305Z,99.99
2023-03-11T02:02:52.374Z,99.99
2023-03-11T02:05:04.428Z,99.99
2023-03-11T02:07:17.993Z,99.99
2023-03-11T02:09:30.082Z,99.99
2023-03-11T02:11:42.199Z,99.99
2023-03-11T02:13:54.269Z,99.99
2023-03-11T02:16:06.359Z,99.99
2023-03-11T02:18:18.472Z,99.99
2023-03-11T02:20:30.521Z,99.99
2023-03-11T02:22:44.173Z,99.99
2023-03-11T02:24:56.214Z,99.99
2023-03-11T02:27:09.812Z,99.99
2023-03-11T02:29:21.879Z,99.99
2023-03-11T02:31:34.065Z,99.99
2023-03-11T02:33:46.092Z,99.99
2023-03-11T02:35:58.209Z,99.99
2023-03-11T02:38:10.261Z,99.99
2023-03-11T02:40:22.367Z,99.99
2023-03-11T02:42:34.427Z,99.99
2023-03-11T02:44:46.524Z,99.99
2023-03-11T02:46:58.652Z,99.99
2023-03-11T02:49:10.709Z,99.99
2023-03-11T02:51:22.775Z,99.99
2023-03-11T02:53:34.860Z,99.99
2023-03-11T02:55:46.989Z,99.99
2023-03-11T02:58:00.538Z,99.99
2023-03-11T03:00:12.621Z,99.99
2023-03-11T03:02:24.695Z,99.99
2023-03-11T03:04:36.899Z,99.99
2023-03-11T03:06:48.888Z,99.99
2023-03-11T03:09:00.969Z,99.99
2023-03-11T03:11:13.056Z,99.99
2023-03-11T03:13:25.186Z,99.99
2023-03-11T03:15:37.230Z,99.99
2023-03-11T03:17:49.355Z,99.99
2023-03-11T03:20:01.404Z,99.99
2023-03-11T03:22:13.516Z,99.99
2023-03-11T03:24:25.576Z,99.99
2023-03-11T03:26:37.665Z,99.99
2023-03-11T03:28:51.264Z,99.99
2023-03-11T03:31:03.319Z,99.99
2023-03-11T03:33:15.417Z,99.99
2023-03-11T03:35:29.003Z,99.99
2023-03-11T03:37:42.073Z,99.99
2023-03-11T03:39:55.679Z,99.99
2023-03-11T03:42:07.747Z,99.99
2023-03-11T03:44:19.851Z,99.99
2023-03-11T03:46:33.454Z,99.99
2023-03-11T03:48:45.537Z,99.99
2023-03-11T03:51:00.134Z,99.99
2023-03-11T03:53:12.316Z,99.99
2023-03-11T03:55:24.316Z,99.99
2023-03-11T03:57:36.417Z,99.99
2023-03-11T03:59:48.465Z,99.99
2023-03-11T04:02:02.102Z,99.99
2023-03-11T04:04:14.120Z,99.99
2023-03-11T04:06:27.720Z,99.99
2023-03-11T04:08:39.794Z,99.99
2023-03-11T04:10:51.901Z,99.99
2023-03-11T04:13:05.480Z,99.99
2023-03-11T04:15:17.543Z,99.99
2023-03-11T04:17:31.140Z,99.99
2023-03-11T04:19:44.727Z,99.99
2023-03-11T04:21:58.312Z,99.99
2023-03-11T04:24:11.936Z,99.99
2023-03-11T04:26:25.477Z,99.99
2023-03-11T04:28:39.092Z,99.99
2023-03-11T04:30:52.235Z,99.99
2023-03-11T04:33:05.740Z,99.99
2023-03-11T04:35:20.230Z,99.99
2023-03-11T04:37:32.954Z,99.99
2023-03-11T04:39:45.035Z,99.99
2023-03-11T04:41:58.125Z,99.99
2023-03-11T04:44:10.235Z,99.99
2023-03-11T04:46:22.373Z,99.99
2023-03-11T04:48:34.391Z,99.99
2023-03-11T04:50:47.959Z,99.99
2023-03-11T04:53:00.067Z,99.99
2023-03-11T04:55:12.171Z,99.99
2023-03-11T04:57:24.296Z,99.99
2023-03-11T04:59:36.301Z,99.99
2023-03-11T05:01:48.470Z,99.99
2023-03-11T05:04:00.484Z,99.99
2023-03-11T05:06:12.876Z,99.99
2023-03-11T05:08:24.970Z,99.99
2023-03-11T05:10:37.036Z,99.99
2023-03-11T05:12:49.114Z,99.99
2023-03-11T05:15:01.245Z,99.99
2023-03-11T05:17:13.293Z,99.99
2023-03-11T05:19:26.916Z,99.99
2023-03-11T05:21:40.472Z,99.99
2023-03-11T05:23:52.616Z,99.99
2023-03-11T05:26:04.672Z,99.99
2023-03-11T05:28:16.735Z,99.99
2023-03-11T05:30:28.870Z,99.99
2023-03-11T05:32:42.501Z,99.99
2023-03-11T05:34:54.516Z,99.99
2023-03-11T05:37:08.591Z,99.99
2023-03-11T05:39:20.692Z,99.99
2023-03-11T05:41:32.798Z,99.99
2023-03-11T05:43:44.841Z,99.99
2023-03-11T05:45:58.446Z,99.99
2023-03-11T05:48:10.525Z,99.99
2023-03-11T05:50:22.668Z,99.99
2023-03-11T05:52:34.719Z,99.99
2023-03-11T05:54:46.768Z,99.99
2023-03-11T05:56:58.909Z,99.99
2023-03-11T05:59:10.944Z,99.99
2023-03-11T06:01:23.039Z,99.99
2023-03-11T06:03:35.116Z,99.99
2023-03-11T06:05:47.195Z,99.99
2023-03-11T06:07:59.270Z,99.99
2023-03-11T06:10:11.352Z,99.99
2023-03-11T06:12:24.458Z,99.99
2023-03-11T06:14:36.555Z,99.99
2023-03-11T06:16:48.691Z,99.99
2023-03-11T06:19:00.799Z,99.99
2023-03-11T06:21:12.772Z,99.99
2023-03-11T06:23:24.867Z,99.99
2023-03-11T06:25:36.995Z,99.99
2023-03-11T06:27:50.019Z,99.99
2023-03-11T06:30:02.153Z,99.99
2023-03-11T06:32:14.236Z,99.99
2023-03-11T06:34:26.306Z,99.99
2023-03-11T06:36:38.456Z,99.99
2023-03-11T06:38:50.460Z,99.99
2023-03-11T06:41:02.551Z,99.99
2023-03-11T06:43:14.617Z,99.99
2023-03-11T06:45:26.708Z,99.99
2023-03-11T06:47:39.821Z,99.99
2023-03-11T06:49:51.867Z,99.99
2023-03-11T06:52:03.954Z,99.99
2023-03-11T06:54:16.054Z,99.99
2023-03-11T06:56:28.135Z,99.99
2023-03-11T06:58:40.228Z,99.99
2023-03-11T07:00:53.312Z,99.99
2023-03-11T07:03:05.349Z,99.99
2023-03-11T07:05:17.492Z,99.99
2023-03-11T07:07:29.550Z,99.99
2023-03-11T07:09:41.638Z,99.99
2023-03-11T07:11:53.707Z,99.99
2023-03-11T07:14:05.791Z,99.99
2023-03-11T07:16:18.193Z,99.99
2023-03-11T07:18:29.965Z,99.99
2023-03-11T07:20:42.079Z,99.99
2023-03-11T07:22:54.123Z,99.99
2023-03-11T07:25:06.212Z,99.99
2023-03-11T07:27:18.307Z,99.99
2023-03-11T07:29:30.370Z,99.99
2023-03-11T07:31:42.492Z,99.99
2023-03-11T07:33:55.670Z,99.99
2023-03-11T07:36:08.687Z,99.99
2023-03-11T07:38:21.722Z,99.99
2023-03-11T07:40:34.831Z,99.99
2023-03-11T07:42:46.956Z,99.99
2023-03-11T07:45:00.030Z,99.99
2023-03-11T07:47:12.118Z,99.99
2023-03-11T07:49:22.739Z,99.99
2023-03-11T07:51:35.810Z,99.99
2023-03-11T07:53:47.949Z,99.99
2023-03-11T07:56:04.216Z,99.99
2023-03-11T07:58:13.449Z,99.99
2023-03-11T08:00:25.591Z,99.99
2023-03-11T08:02:39.658Z,99.99
2023-03-11T08:04:52.753Z,99.99
2023-03-11T08:07:04.856Z,99.99
2023-03-11T08:09:17.962Z,99.99
2023-03-11T08:11:30.998Z,99.99
2023-03-11T08:13:43.092Z,99.99
2023-03-11T08:15:55.309Z,99.99
2023-03-11T08:18:08.278Z,99.99
2023-03-11T08:20:20.410Z,99.99
2023-03-11T08:22:32.483Z,99.99
2023-03-11T08:24:45.580Z,99.99
2023-03-11T08:26:57.701Z,99.99
2023-03-11T08:29:10.814Z,99.99
2023-03-11T08:31:23.917Z,99.99
2023-03-11T08:33:36.962Z,99.99
2023-03-11T08:35:50.462Z,99.99
2023-03-11T08:38:02.515Z,99.99
2023-03-11T08:40:14.558Z,99.99
2023-03-11T08:42:26.659Z,99.99
2023-03-11T08:44:38.774Z,99.99
2023-03-11T08:46:50.884Z,99.99
2023-03-11T08:49:02.963Z,99.99
2023-03-11T08:51:15.010Z,99.99
2023-03-11T08:53:27.089Z,99.99
2023-03-11T08:55:39.196Z,99.99
2023-03-11T08:57:51.288Z,99.99
2023-03-11T09:00:04.905Z,99.99
2023-03-11T09:02:16.967Z,99.99
2023-03-11T09:04:30.046Z,99.99
2023-03-11T09:06:43.130Z,99.99
2023-03-11T09:08:56.723Z,99.99
2023-03-11T09:11:08.823Z,99.99
2023-03-11T09:13:22.371Z,99.99
2023-03-11T09:15:34.441Z,99.99
2023-03-11T09:17:47.533Z,99.99
2023-03-11T09:19:59.649Z,99.99
2023-03-11T09:22:11.760Z,99.99
2023-03-11T09:24:24.825Z,99.99
2023-03-11T09:26:37.875Z,99.99
2023-03-11T09:28:50.919Z,99.99
2023-03-11T09:31:02.114Z,99.99
2023-03-11T09:33:14.200Z,99.99
2023-03-11T09:35:26.308Z,99.99
2023-03-11T09:37:41.961Z,99.99
2023-03-11T09:40:02.437Z,99.99
2023-03-11T09:42:14.528Z,99.99
2023-03-11T09:44:27.633Z,99.99
2023-03-11T09:46:40.763Z,99.99
2023-03-11T09:48:52.756Z,99.99
2023-03-11T09:51:04.875Z,99.99
2023-03-11T09:53:16.947Z,99.99
2023-03-11T09:55:29.342Z,99.99
2023-03-11T09:57:41.413Z,99.99
2023-03-11T09:59:53.509Z,99.99
2023-03-11T10:02:05.662Z,99.99
2023-03-11T10:04:17.657Z,99.99
2023-03-11T10:06:29.801Z,99.99
2023-03-11T10:08:41.862Z,99.99
2023-03-11T10:10:54.936Z,99.99
2023-03-11T10:13:08.542Z,99.99
2023-03-11T10:15:22.161Z,99.99
2023-03-11T10:17:35.726Z,99.99
2023-03-11T10:19:47.796Z,99.99
2023-03-11T10:21:59.851Z,99.99
2023-03-11T10:24:11.944Z,99.99
2023-03-11T10:26:25.538Z,99.99
2023-03-11T10:28:38.639Z,99.99
2023-03-11T10:30:50.780Z,99.99
2023-03-11T10:33:08.804Z,99.99
2023-03-11T10:35:29.434Z,99.99
2023-03-11T10:37:50.268Z,99.99
2023-03-11T10:40:03.058Z,99.99
2023-03-11T10:42:18.660Z,99.99
2023-03-11T10:44:34.248Z,99.99
2023-03-11T10:46:46.319Z,99.99
2023-03-11T10:48:59.989Z,99.99
2023-03-11T10:51:18.054Z,99.99
2023-03-11T10:53:33.612Z,99.99
2023-03-11T10:55:47.559Z,99.99
2023-03-11T10:58:02.275Z,99.99
2023-03-11T11:00:20.283Z,99.99
2023-03-11T11:02:29.451Z,99.99
2023-03-11T11:04:45.558Z,99.99
2023-03-11T11:07:00.847Z,99.99
2023-03-11T11:10:58.418Z,99.99
2023-03-11T11:12:49.354Z,99.84
2023-03-11T11:15:05.027Z,97.62
2023-03-11T11:17:19.126Z,95.67
2023-03-11T11:19:31.976Z,92.86
2023-03-11T11:21:49.308Z,95.34
2023-03-11T11:24:32.223Z,96.83
2023-03-11T11:26:36.418Z,95.73
2023-03-11T11:59:21.011Z,96.67
2023-03-11T12:18:17.335Z,94.82
2023-03-11T12:59:36.520Z,91.08
2023-03-11T13:10:48.982Z,89.87
2023-03-11T13:22:26.049Z,92.82
2023-03-11T13:24:15.014Z,89.12
2023-03-11T13:26:28.908Z,89.12
2023-03-11T13:28:44.179Z,88.64
2023-03-11T13:30:56.256Z,89.33
2023-03-11T13:33:09.876Z,90.58
2023-03-11T13:35:22.513Z,89.92
2023-03-11T13:37:34.023Z,89.39
2023-03-11T13:39:47.609Z,90.29
2023-03-11T13:42:01.229Z,89.77
2023-03-11T13:44:15.145Z,89.46
2023-03-11T13:46:28.063Z,91.37
2023-03-11T13:48:42.804Z,88.84
2023-03-11T13:50:58.354Z,89.25
2023-03-11T13:53:16.449Z,89.25
2023-03-11T13:55:32.072Z,89.46
2023-03-11T13:57:50.159Z,90.19
2023-03-11T14:00:05.698Z,87.90
2023-03-11T14:02:23.795Z,89.56
2023-03-11T14:04:39.359Z,89.77
2023-03-11T14:06:57.513Z,90.56
2023-03-11T14:09:15.559Z,89.52
2023-03-11T14:11:33.667Z,90.29
2023-03-11T14:13:51.767Z,89.67
2023-03-11T14:16:09.835Z,89.67
2023-03-11T14:18:24.400Z,89.29
2023-03-11T14:20:37.633Z,92.30
2023-03-11T14:22:55.739Z,91.58
2023-03-11T14:25:11.294Z,89.77
2023-03-11T14:27:29.406Z,90.50
2023-03-11T14:29:47.501Z,89.94
2023-03-11T14:32:04.117Z,89.62
2023-03-11T14:34:22.230Z,89.94
2023-03-11T14:36:40.269Z,87.86
2023-03-11T14:39:01.309Z,88.07
2023-03-11T14:41:20.481Z,87.90
2023-03-11T14:43:39.550Z,88.42
2023-03-11T14:45:57.904Z,88.73
2023-03-11T14:48:18.512Z,87.65
2023-03-11T14:50:39.301Z,85.20
2023-03-11T14:52:56.895Z,84.89
2023-03-11T14:55:15.037Z,85.41
2023-03-11T14:57:33.934Z,85.30
2023-03-11T14:59:51.256Z,84.47
2023-03-11T15:02:10.616Z,83.64
2023-03-11T15:04:28.485Z,83.16
2023-03-11T15:06:49.152Z,85.86
2023-03-11T15:09:07.379Z,85.55
2023-03-11T15:11:23.891Z,84.09
2023-03-11T15:13:44.486Z,82.12
2023-03-11T15:16:02.673Z,82.26
2023-03-11T15:18:23.282Z,86.42
2023-03-11T15:20:44.129Z,82.68
2023-03-11T15:23:04.354Z,84.44
2023-03-11T15:25:22.452Z,86.11
2023-03-11T15:27:43.172Z,84.75
2023-03-11T15:30:03.660Z,83.92
2023-03-11T15:32:22.310Z,82.46
2023-03-11T15:34:39.827Z,83.34
2023-03-11T15:36:58.014Z,82.05
2023-03-11T15:39:18.897Z,82.46
2023-03-11T15:41:36.811Z,83.44
2023-03-11T15:43:52.274Z,85.00
2023-03-11T15:46:10.422Z,82.46
2023-03-11T15:48:28.523Z,82.78
2023-03-11T15:50:52.819Z,84.55
2023-03-11T15:53:08.194Z,85.63
2023-03-11T15:55:23.844Z,87.92
2023-03-11T15:57:41.892Z,85.94
2023-03-11T16:00:00.028Z,84.38
2023-03-11T16:02:18.088Z,83.23
2023-03-11T16:04:36.345Z,84.38
2023-03-11T16:07:02.903Z,85.21
2023-03-11T16:09:06.340Z,87.33
2023-03-11T16:11:24.493Z,86.81
2023-03-11T16:13:42.547Z,86.91
2023-03-11T16:16:02.319Z,85.04
2023-03-11T16:18:15.353Z,87.02
2023-03-11T16:20:30.867Z,85.25
2023-03-11T16:22:46.473Z,85.35
2023-03-11T16:25:04.531Z,89.14
2023-03-11T16:27:19.106Z,87.06
2023-03-11T16:29:37.197Z,88.10
2023-03-11T16:31:55.273Z,86.02
2023-03-11T16:34:10.910Z,88.31
2023-03-11T16:36:25.456Z,90.33
2023-03-11T16:38:44.398Z,91.31
2023-03-11T16:40:58.132Z,91.83
2023-03-11T16:43:16.206Z,91.46
2023-03-11T16:45:31.856Z,91.25
2023-03-11T16:47:47.397Z,93.02
2023-03-11T16:50:02.979Z,92.54
2023-03-11T16:52:18.585Z,93.59
2023-03-11T16:54:33.158Z,93.48
2023-03-11T16:56:51.272Z,93.73
2023-03-11T16:59:07.400Z,93.37
2023-03-11T17:01:25.008Z,94.57
2023-03-11T17:03:42.865Z,93.31
2023-03-11T17:05:55.163Z,93.52
2023-03-11T17:08:14.261Z,93.94
2023-03-11T17:10:29.943Z,94.67
2023-03-11T17:12:47.959Z,94.15
2023-03-11T17:15:03.563Z,93.84
2023-03-11T17:17:21.648Z,93.21
2023-03-11T17:19:36.252Z,94.04
2023-03-11T17:21:51.844Z,93.94
2023-03-11T17:24:09.928Z,93.31
2023-03-11T17:26:28.079Z,94.25
2023-03-11T17:28:44.619Z,94.67
2023-03-11T17:31:03.138Z,95.03
2023-03-11T17:33:20.771Z,93.63
2023-03-11T17:35:38.930Z,95.19
2023-03-11T17:37:56.920Z,95.65
2023-03-11T17:40:15.009Z,95.76
2023-03-11T17:42:30.635Z,96.11
2023-03-11T17:44:52.029Z,96.01
2023-03-11T17:47:05.172Z,95.23
2023-03-11T17:49:19.994Z,95.13
2023-03-11T17:51:35.477Z,94.50
2023-03-11T17:53:53.605Z,94.71
2023-03-11T17:56:08.140Z,94.40
2023-03-11T17:58:24.061Z,94.50
2023-03-11T18:00:39.662Z,94.61
2023-03-11T18:02:55.315Z,93.77
2023-03-11T18:05:10.919Z,94.29
2023-03-11T18:07:26.481Z,93.77
2023-03-11T18:09:44.600Z,94.50
2023-03-11T18:12:00.198Z,95.03
2023-03-11T18:14:15.786Z,94.50
2023-03-11T18:16:34.429Z,95.17
2023-03-11T18:18:51.946Z,94.96
2023-03-11T18:21:10.550Z,95.49
2023-03-11T18:23:24.629Z,95.80
2023-03-11T18:25:39.198Z,95.49
2023-03-11T18:27:54.864Z,95.38
2023-03-11T18:30:12.897Z,94.96
2023-03-11T18:32:28.641Z,95.17
2023-03-11T18:34:46.608Z,95.28
2023-03-11T18:37:02.244Z,95.17
2023-03-11T18:39:17.859Z,95.07
2023-03-11T18:41:33.460Z,95.70
2023-03-11T18:43:48.046Z,95.17
2023-03-11T18:46:06.200Z,94.71
2023-03-11T18:48:24.403Z,94.71
2023-03-11T18:50:39.865Z,94.92
2023-03-11T18:52:55.460Z,94.71
2023-03-11T18:55:13.501Z,94.40
2023-03-11T18:57:29.112Z,94.50
2023-03-11T18:59:43.770Z,94.82
2023-03-11T19:01:59.307Z,94.19
2023-03-11T19:04:14.852Z,94.29
2023-03-11T19:06:30.447Z,93.88
2023-03-11T19:08:48.537Z,93.41
2023-03-11T19:11:03.118Z,93.63
2023-03-11T19:13:21.636Z,94.29
2023-03-11T19:15:39.904Z,93.57
2023-03-11T19:18:06.199Z,93.00
2023-03-11T19:20:11.828Z,92.90
2023-03-11T19:22:27.447Z,93.31
2023-03-11T19:24:45.578Z,93.63
2023-03-11T19:27:06.157Z,94.61
2023-03-11T19:29:24.325Z,93.88
2023-03-11T19:31:39.895Z,94.61
2023-03-11T19:33:57.972Z,93.67
2023-03-11T19:36:12.677Z,94.09
2023-03-11T19:38:28.179Z,93.88
2023-03-11T19:40:43.762Z,93.77
2023-03-11T19:43:02.914Z,93.46
2023-03-11T19:45:17.472Z,93.88
2023-03-11T19:47:35.559Z,93.67
2023-03-11T19:49:56.214Z,93.88
2023-03-11T19:52:16.736Z,94.09
2023-03-11T19:54:32.358Z,94.55
2023-03-11T19:56:50.456Z,94.65
2023-03-11T19:59:08.557Z,94.86
2023-03-11T20:01:24.235Z,94.23
2023-03-11T20:03:39.797Z,94.19
2023-03-11T20:06:00.668Z,93.98
2023-03-11T20:08:18.533Z,93.25
2023-03-11T20:10:36.709Z,93.67
2023-03-11T20:13:02.130Z,93.88
2023-03-11T20:15:08.831Z,94.34
2023-03-11T20:17:23.342Z,94.55
2023-03-11T20:19:38.976Z,94.44
2023-03-11T20:21:54.639Z,94.02
2023-03-11T20:24:10.182Z,93.88
2023-03-11T20:26:25.812Z,93.46
2023-03-11T20:28:43.841Z,92.63
2023-03-11T20:31:01.932Z,92.83
2023-03-11T20:33:20.007Z,93.46
2023-03-11T20:35:38.162Z,92.94
2023-03-11T20:37:51.651Z,93.57
2023-03-11T20:40:09.746Z,93.50
2023-03-11T20:42:23.327Z,92.98
2023-03-11T20:44:41.452Z,92.52
2023-03-11T20:47:02.426Z,92.73
2023-03-11T20:49:17.644Z,92.63
2023-03-11T20:51:33.303Z,92.73
2023-03-11T20:53:49.026Z,93.19
2023-03-11T20:56:04.459Z,93.92
2023-03-11T20:58:22.602Z,92.88
2023-03-11T21:00:38.176Z,94.34
2023-03-11T21:02:53.876Z,93.92
2023-03-11T21:05:09.339Z,93.76
2023-03-11T21:07:23.084Z,94.38
2023-03-11T21:09:36.537Z,93.54
2023-03-11T21:11:50.107Z,92.56
2023-03-11T21:14:05.699Z,93.40
2023-03-11T21:16:20.905Z,93.08
2023-03-11T21:18:33.960Z,92.66
2023-03-11T21:20:48.281Z,92.77
2023-03-11T21:23:03.121Z,92.46
2023-03-11T21:25:18.827Z,92.04
2023-03-11T21:27:34.294Z,92.77
2023-03-11T21:29:52.359Z,92.46
2023-03-11T21:32:08.151Z,92.04
2023-03-11T21:34:24.038Z,92.46
2023-03-11T21:36:41.838Z,92.35
2023-03-11T21:38:57.226Z,92.46
2023-03-11T21:41:10.743Z,92.77
2023-03-11T21:43:26.510Z,92.77
2023-03-11T21:45:42.119Z,92.56
2023-03-11T21:47:57.748Z,93.02
2023-03-11T21:50:12.163Z,92.71
2023-03-11T21:52:27.854Z,93.65
2023-03-11T21:54:47.661Z,93.23
2023-03-11T21:56:58.888Z,93.33
2023-03-11T21:59:14.542Z,93.80
2023-03-11T22:01:32.693Z,93.44
2023-03-11T22:03:50.921Z,93.76
2023-03-11T22:06:06.371Z,93.65
2023-03-11T22:08:23.140Z,94.11
2023-03-11T22:10:37.551Z,93.90
2023-03-11T22:12:51.115Z,94.42
2023-03-11T22:15:02.907Z,94.32
2023-03-11T22:17:18.451Z,94.21
2023-03-11T22:19:34.139Z,94.78
2023-03-11T22:21:52.098Z,94.78
2023-03-11T22:24:10.167Z,94.26
2023-03-11T22:26:25.742Z,94.26
2023-03-11T22:28:41.373Z,94.57
2023-03-11T22:30:56.941Z,94.89
2023-03-11T22:33:15.030Z,95.20
2023-03-11T22:35:30.698Z,95.56
2023-03-11T22:37:46.256Z,96.29
2023-03-11T22:40:04.314Z,96.29
2023-03-11T22:42:19.877Z,96.29
2023-03-11T22:44:37.955Z,95.87
2023-03-11T22:46:53.053Z,96.19
2023-03-11T22:49:11.241Z,96.29
2023-03-11T22:51:24.719Z,96.61
2023-03-11T22:53:42.850Z,96.50
2023-03-11T22:56:00.913Z,96.65
2023-03-11T22:58:16.535Z,96.86
2023-03-11T23:00:34.607Z,97.17
2023-03-11T23:02:52.739Z,97.28
2023-03-11T23:05:10.787Z,96.65
2023-03-11T23:07:26.354Z,96.86
2023-03-11T23:09:40.930Z,97.38
2023-03-11T23:11:56.561Z,97.38
2023-03-11T23:14:12.123Z,97.17
2023-03-11T23:16:30.512Z,97.80
2023-03-11T23:18:46.630Z,97.49
2023-03-11T23:20:58.895Z,97.06
2023-03-11T23:23:12.100Z,96.65
2023-03-11T23:25:27.575Z,96.19
2023-03-11T23:27:43.190Z,96.75
2023-03-11T23:30:01.260Z,96.86
2023-03-11T23:32:19.543Z,97.06
2023-03-11T23:34:35.979Z,96.96
2023-03-11T23:36:54.100Z,97.06
2023-03-11T23:39:12.168Z,96.65
2023-03-11T23:41:30.308Z,96.86
2023-03-11T23:43:48.493Z,96.96
2023-03-11T23:46:04.415Z,96.75
2023-03-11T23:48:22.327Z,96.96
2023-03-11T23:50:40.433Z,97.06
2023-03-11T23:52:58.514Z,97.06
2023-03-11T23:55:19.125Z,96.86
2023-03-11T23:57:33.849Z,96.44
2023-03-11T23:59:51.818Z,96.65
